createdAt,value
2019-02-10T00:01:28.406Z,90.20
2019-02-10T00:03:56.033Z,90.00
2019-02-10T00:06:24.966Z,90.10
2019-02-10T00:08:52.822Z,90.00
2019-02-10T00:11:20.752Z,90.00
2019-02-10T00:13:48.699Z,89.90
2019-02-10T00:16:18.705Z,90.00
2019-02-10T00:18:47.600Z,89.60
2019-02-10T00:21:15.290Z,89.50
2019-02-10T00:23:42.940Z,89.70
2019-02-10T00:26:10.588Z,89.90
2019-02-10T00:28:38.327Z,89.80
2019-02-10T00:31:06.161Z,89.90
2019-02-10T00:33:33.655Z,89.70
2019-02-10T00:36:11.504Z,89.70
2019-02-10T00:38:39.108Z,89.60
2019-02-10T00:41:06.857Z,89.90
2019-02-10T00:43:34.655Z,90.00
2019-02-10T00:46:02.381Z,89.70
2019-02-10T00:48:30.072Z,89.60
2019-02-10T00:50:57.706Z,89.50
2019-02-10T00:53:25.250Z,89.40
2019-02-10T00:55:52.886Z,90.00
2019-02-10T00:58:20.405Z,89.50
2019-02-10T01:00:48.172Z,89.60
2019-02-10T01:03:15.810Z,89.30
2019-02-10T01:05:43.429Z,89.10
2019-02-10T01:08:12.321Z,89.00
2019-02-10T01:10:40.040Z,89.30
2019-02-10T01:13:07.678Z,89.40
2019-02-10T01:15:35.464Z,89.20
2019-02-10T01:18:03.120Z,89.60
2019-02-10T01:20:30.619Z,89.50
2019-02-10T01:22:58.415Z,89.40
2019-02-10T01:25:26.157Z,89.40
2019-02-10T01:27:55.047Z,89.40
2019-02-10T01:30:22.627Z,89.40
2019-02-10T01:32:50.188Z,89.90
2019-02-10T01:35:17.956Z,89.80
2019-02-10T01:37:45.611Z,90.10
2019-02-10T01:40:13.180Z,90.10
2019-02-10T01:42:41.728Z,90.20
2019-02-10T01:45:10.448Z,90.30
2019-02-10T01:47:38.130Z,90.40
2019-02-10T01:50:07.842Z,90.70
2019-02-10T01:52:36.185Z,90.50
2019-02-10T01:55:05.670Z,90.60
2019-02-10T01:57:33.557Z,90.60
2019-02-10T02:00:01.351Z,90.70
2019-02-10T02:02:29.145Z,90.80
2019-02-10T02:04:56.979Z,90.80
2019-02-10T02:07:25.300Z,90.80
2019-02-10T02:09:53.067Z,90.80
2019-02-10T02:12:20.449Z,91.00
2019-02-10T02:14:47.977Z,90.90
2019-02-10T02:17:15.679Z,91.40
2019-02-10T02:19:43.473Z,91.00
2019-02-10T02:22:11.328Z,91.10
2019-02-10T02:24:38.730Z,91.30
2019-02-10T02:27:06.319Z,91.20
2019-02-10T02:29:33.702Z,91.70
2019-02-10T02:32:01.781Z,91.30
2019-02-10T02:34:29.401Z,91.60
2019-02-10T02:37:07.322Z,91.20
2019-02-10T02:39:27.319Z,92.40
2019-02-10T02:41:55.056Z,91.50
2019-02-10T02:44:22.820Z,91.70
2019-02-10T02:46:52.423Z,91.50
2019-02-10T02:49:20.233Z,91.40
2019-02-10T02:51:47.919Z,91.40
2019-02-10T02:54:15.498Z,91.50
2019-02-10T02:56:43.242Z,91.40
2019-02-10T02:59:10.975Z,91.40
2019-02-10T03:01:39.111Z,91.40
2019-02-10T03:04:07.194Z,91.60
2019-02-10T03:06:47.724Z,91.50
2019-02-10T03:09:16.530Z,91.90
2019-02-10T03:11:46.178Z,92.20
2019-02-10T03:14:14.335Z,92.10
2019-02-10T03:16:42.236Z,92.40
2019-02-10T03:19:10.756Z,92.40
2019-02-10T03:21:38.360Z,92.50
2019-02-10T03:24:06.191Z,92.50
2019-02-10T03:26:33.885Z,92.70
2019-02-10T03:29:01.478Z,92.50
2019-02-10T03:31:29.307Z,92.50
2019-02-10T03:33:56.838Z,92.50
2019-02-10T03:36:24.494Z,92.80
2019-02-10T03:38:52.488Z,92.80
2019-02-10T03:41:20.127Z,92.70
2019-02-10T03:43:47.855Z,92.70
2019-02-10T03:46:16.130Z,92.60
2019-02-10T03:48:43.844Z,92.70
2019-02-10T03:51:11.348Z,92.80
2019-02-10T03:53:38.846Z,92.90
2019-02-10T03:56:06.661Z,93.00
2019-02-10T03:58:34.266Z,93.00
2019-02-10T04:01:02.238Z,93.10
2019-02-10T04:03:29.777Z,93.20
2019-02-10T04:05:57.491Z,93.40
2019-02-10T04:08:25.526Z,93.40
2019-02-10T04:10:53.089Z,93.50
2019-02-10T04:13:20.777Z,93.50
2019-02-10T04:15:48.483Z,93.60
2019-02-10T04:18:16.367Z,93.70
2019-02-10T04:20:44.092Z,93.60
2019-02-10T04:23:11.622Z,93.70
2019-02-10T04:25:40.351Z,93.70
2019-02-10T04:28:08.180Z,93.80
2019-02-10T04:30:35.813Z,93.90
2019-02-10T04:33:03.978Z,93.90
2019-02-10T04:35:31.451Z,93.90
2019-02-10T04:37:59.203Z,93.90
2019-02-10T04:40:26.728Z,93.90
2019-02-10T04:42:54.464Z,94.10
2019-02-10T04:45:21.979Z,94.40
2019-02-10T04:47:49.843Z,94.30
2019-02-10T04:53:14.531Z,94.30
2019-02-10T04:55:41.991Z,94.20
2019-02-10T04:58:09.557Z,95.10
2019-02-10T05:00:37.417Z,94.80
2019-02-10T05:03:05.042Z,94.60
2019-02-10T05:05:32.577Z,94.40
2019-02-10T05:08:00.573Z,94.40
2019-02-10T05:10:28.230Z,94.30
2019-02-10T05:12:55.747Z,94.40
2019-02-10T05:15:23.427Z,94.20
2019-02-10T05:17:51.088Z,94.20
2019-02-10T05:20:18.678Z,94.40
2019-02-10T05:22:46.514Z,94.30
2019-02-10T05:25:14.124Z,94.40
2019-02-10T05:27:41.611Z,94.30
2019-02-10T05:30:09.270Z,94.30
2019-02-10T05:32:36.909Z,94.50
2019-02-10T05:35:05.186Z,94.40
2019-02-10T05:37:32.818Z,94.40
2019-02-10T05:40:00.207Z,94.60
2019-02-10T05:42:27.896Z,94.80
2019-02-10T05:44:55.591Z,94.70
2019-02-10T05:47:23.190Z,94.90
2019-02-10T05:49:50.789Z,95.30
2019-02-10T05:52:18.280Z,94.90
2019-02-10T05:54:46.171Z,94.70
2019-02-10T05:57:14.062Z,94.80
2019-02-10T05:59:42.036Z,94.90
2019-02-10T06:02:24.112Z,94.90
2019-02-10T06:04:52.262Z,94.80
2019-02-10T06:07:20.022Z,94.80
2019-02-10T06:09:48.013Z,94.70
2019-02-10T06:12:15.608Z,94.80
2019-02-10T06:14:43.278Z,94.70
2019-02-10T06:17:11.209Z,94.60
2019-02-10T06:19:38.818Z,94.60
2019-02-10T06:22:06.597Z,94.60
2019-02-10T06:24:34.399Z,94.60
2019-02-10T06:27:02.126Z,94.60
2019-02-10T06:29:30.041Z,94.60
2019-02-10T06:31:57.830Z,94.50
2019-02-10T06:34:25.628Z,94.60
2019-02-10T06:36:53.254Z,94.50
2019-02-10T06:39:20.629Z,94.50
2019-02-10T06:41:48.359Z,94.40
2019-02-10T06:44:16.070Z,94.30
2019-02-10T06:46:43.625Z,94.50
2019-02-10T06:49:11.186Z,94.20
2019-02-10T06:51:38.569Z,94.10
2019-02-10T06:54:06.201Z,94.00
2019-02-10T06:56:33.722Z,94.00
2019-02-10T06:59:01.289Z,93.80
2019-02-10T07:01:35.223Z,93.50
2019-02-10T07:04:30.415Z,93.20
2019-02-10T07:06:58.393Z,92.90
2019-02-10T07:09:26.365Z,92.50
2019-02-10T07:11:54.427Z,92.00
2019-02-10T07:14:29.220Z,91.70
2019-02-10T07:17:59.735Z,91.10
2019-02-10T07:20:41.343Z,90.70
2019-02-10T07:24:00.904Z,89.80
2019-02-10T07:26:55.266Z,88.50
2019-02-10T07:30:33.643Z,86.80
2019-02-10T07:33:12.649Z,86.00
2019-02-10T07:36:23.250Z,84.00
2019-02-10T07:39:50.395Z,82.00
2019-02-10T07:43:02.124Z,77.50
2019-02-10T07:46:23.372Z,70.60
2019-02-10T07:49:34.627Z,65.80
2019-02-10T07:52:35.660Z,62.90
2019-02-10T07:55:38.591Z,59.40
2019-02-10T07:59:02.631Z,57.10
2019-02-10T08:02:09.925Z,54.40
2019-02-10T08:05:37.878Z,50.60
2019-02-10T08:09:05.884Z,47.50
2019-02-10T08:12:02.663Z,44.10
2019-02-10T08:15:35.003Z,41.60
2019-02-10T08:19:16.292Z,38.80
2019-02-10T08:22:25.703Z,38.00
2019-02-10T08:25:57.146Z,35.80
2019-02-10T08:29:16.215Z,33.80
2019-02-10T08:32:58.707Z,32.00
2019-02-10T08:35:44.797Z,31.00
2019-02-10T08:38:44.882Z,30.70
2019-02-10T08:41:49.179Z,30.00
2019-02-10T08:44:50.831Z,28.70
2019-02-10T08:48:23.887Z,28.40
2019-02-10T08:51:48.116Z,27.30
2019-02-10T08:54:27.531Z,27.00
2019-02-10T08:57:02.994Z,26.60
2019-02-10T08:59:33.843Z,26.50
2019-02-10T09:02:01.736Z,26.20
2019-02-10T09:04:30.082Z,26.20
2019-02-10T09:06:58.645Z,25.40
2019-02-10T09:09:26.005Z,25.10
2019-02-10T09:11:53.566Z,24.50
2019-02-10T09:14:21.462Z,24.40
2019-02-10T09:16:49.237Z,23.90
2019-02-10T09:19:20.616Z,23.40
2019-02-10T09:21:48.242Z,23.00
2019-02-10T09:24:15.653Z,23.30
2019-02-10T09:26:43.776Z,23.10
2019-02-10T09:29:11.566Z,22.60
2019-02-10T09:31:39.089Z,22.50
2019-02-10T09:34:06.686Z,22.00
2019-02-10T09:36:34.684Z,22.00
2019-02-10T09:39:10.614Z,21.70
2019-02-10T09:41:34.003Z,21.30
2019-02-10T09:44:02.070Z,21.30
2019-02-10T09:46:29.840Z,21.00
2019-02-10T09:48:57.497Z,20.80
2019-02-10T09:51:25.808Z,20.80
2019-02-10T09:53:53.301Z,20.60
2019-02-10T09:56:20.927Z,20.10
2019-02-10T09:58:49.471Z,20.20
2019-02-10T10:01:17.125Z,19.90
2019-02-10T10:03:44.701Z,19.60
2019-02-10T10:06:12.257Z,19.90
2019-02-10T10:08:39.742Z,19.90
2019-02-10T10:11:07.247Z,19.60
2019-02-10T10:13:34.630Z,19.10
2019-02-10T10:16:02.465Z,19.10
2019-02-10T10:18:30.944Z,19.10
2019-02-10T10:20:59.248Z,19.00
2019-02-10T10:23:26.908Z,18.60
2019-02-10T10:25:54.569Z,18.00
2019-02-10T10:28:22.364Z,18.20
2019-02-10T10:30:50.090Z,17.90
2019-02-10T10:33:18.751Z,17.30
2019-02-10T10:35:46.419Z,17.60
2019-02-10T10:38:15.617Z,17.40
2019-02-10T10:40:43.636Z,17.70
2019-02-10T10:43:11.277Z,17.60
2019-02-10T10:45:38.837Z,17.50
2019-02-10T10:48:06.495Z,17.60
2019-02-10T10:50:34.184Z,17.70
2019-02-10T10:53:01.924Z,17.80
2019-02-10T10:55:29.709Z,17.60
2019-02-10T10:57:57.242Z,17.70
2019-02-10T11:00:24.930Z,17.60
2019-02-10T11:02:52.595Z,17.70
2019-02-10T11:05:20.357Z,17.90
2019-02-10T11:08:29.287Z,18.00
2019-02-10T11:10:57.197Z,17.80
2019-02-10T11:13:25.684Z,17.80
2019-02-10T11:15:53.265Z,17.30
2019-02-10T11:18:20.725Z,17.40
2019-02-10T11:20:48.185Z,17.90
2019-02-10T11:23:15.914Z,18.10
2019-02-10T11:28:32.489Z,19.00
2019-02-10T11:31:00.048Z,19.10
2019-02-10T11:33:27.742Z,19.90
2019-02-10T11:35:55.212Z,21.40
2019-02-10T11:38:23.040Z,21.80
2019-02-10T11:40:54.561Z,21.70
2019-02-10T11:43:22.396Z,21.20
2019-02-10T11:45:49.967Z,21.20
2019-02-10T11:48:17.565Z,20.90
2019-02-10T11:50:45.475Z,21.60
2019-02-10T11:53:13.475Z,23.20
2019-02-10T11:55:41.292Z,23.20
2019-02-10T11:58:09.205Z,24.00
2019-02-10T12:00:36.856Z,25.00
2019-02-10T12:03:04.904Z,26.00
2019-02-10T12:05:32.496Z,27.10
2019-02-10T12:08:00.120Z,28.40
2019-02-10T12:10:27.684Z,29.70
2019-02-10T12:12:55.321Z,30.50
2019-02-10T12:15:22.987Z,31.20
2019-02-10T12:17:50.832Z,31.50
2019-02-10T12:20:18.701Z,32.30
2019-02-10T12:22:50.342Z,32.70
2019-02-10T12:25:17.527Z,32.60
2019-02-10T12:27:45.487Z,33.10
2019-02-10T12:30:13.538Z,33.70
2019-02-10T12:32:41.252Z,34.00
2019-02-10T12:35:09.944Z,35.10
2019-02-10T12:37:38.063Z,35.10
2019-02-10T12:40:06.043Z,35.40
2019-02-10T12:42:34.615Z,35.60
2019-02-10T12:45:02.763Z,35.30
2019-02-10T12:47:30.699Z,35.60
2019-02-10T12:49:59.337Z,33.90
2019-02-10T12:52:27.016Z,33.40
2019-02-10T12:54:55.519Z,32.60
2019-02-10T12:57:24.206Z,31.40
2019-02-10T12:59:53.372Z,30.60
2019-02-10T13:02:20.992Z,29.10
2019-02-10T13:04:49.831Z,27.70
2019-02-10T13:07:17.264Z,26.40
2019-02-10T13:09:44.738Z,25.50
2019-02-10T13:12:12.253Z,25.30
2019-02-10T13:14:39.950Z,25.70
2019-02-10T13:17:07.757Z,26.40
2019-02-10T13:19:35.321Z,27.10
2019-02-10T13:22:03.052Z,28.00
2019-02-10T13:24:30.814Z,28.70
2019-02-10T13:26:58.429Z,29.20
2019-02-10T13:29:26.235Z,29.80
2019-02-10T13:31:53.925Z,30.20
2019-02-10T13:34:21.863Z,30.10
2019-02-10T13:36:49.631Z,30.40
2019-02-10T13:39:20.876Z,30.60
2019-02-10T13:41:51.903Z,30.60
2019-02-10T13:44:22.678Z,30.40
2019-02-10T13:46:50.244Z,30.40
2019-02-10T13:49:17.785Z,30.90
2019-02-10T13:51:45.966Z,31.50
2019-02-10T13:54:13.564Z,32.70
2019-02-10T13:56:41.282Z,32.70
2019-02-10T13:59:09.164Z,34.50
2019-02-10T14:01:37.634Z,34.30
2019-02-10T14:04:05.442Z,35.40
2019-02-10T14:06:34.326Z,38.20
2019-02-10T14:09:06.242Z,36.60
2019-02-10T14:11:35.290Z,37.50
2019-02-10T14:14:03.225Z,38.10
2019-02-10T14:16:31.100Z,38.10
2019-02-10T14:18:59.498Z,39.40
2019-02-10T14:21:27.714Z,39.60
2019-02-10T14:23:56.654Z,39.40
2019-02-10T14:26:24.638Z,39.80
2019-02-10T14:28:57.025Z,40.10
2019-02-10T14:31:28.218Z,40.70
2019-02-10T14:33:59.723Z,41.70
2019-02-10T14:36:28.163Z,42.00
2019-02-10T14:38:59.293Z,41.80
2019-02-10T14:41:29.862Z,44.30
2019-02-10T14:44:01.552Z,44.40
2019-02-10T14:46:32.574Z,43.70
2019-02-10T14:49:00.687Z,44.60
2019-02-10T14:51:28.919Z,44.10
2019-02-10T14:53:57.842Z,44.90
2019-02-10T14:56:31.142Z,45.50
2019-02-10T14:58:59.204Z,45.70
2019-02-10T15:01:26.911Z,46.20
2019-02-10T15:04:00.148Z,46.80
2019-02-10T15:06:30.573Z,49.00
2019-02-10T15:08:58.375Z,48.50
2019-02-10T15:11:27.447Z,48.20
2019-02-10T15:13:56.137Z,48.90
2019-02-10T15:16:23.976Z,49.60
2019-02-10T15:18:51.820Z,49.20
2019-02-10T15:21:19.260Z,49.60
2019-02-10T15:23:46.824Z,49.20
2019-02-10T15:26:14.451Z,49.30
2019-02-10T15:28:41.879Z,49.90
2019-02-10T15:31:09.774Z,51.00
2019-02-10T15:33:37.334Z,51.30
2019-02-10T15:36:05.301Z,51.10
2019-02-10T15:38:33.149Z,51.60
2019-02-10T15:41:01.266Z,51.70
2019-02-10T15:43:29.310Z,52.60
2019-02-10T15:45:57.304Z,53.20
2019-02-10T15:48:25.274Z,53.50
2019-02-10T15:50:52.925Z,53.40
2019-02-10T15:53:20.881Z,53.60
2019-02-10T15:55:48.771Z,53.40
2019-02-10T15:58:16.715Z,54.20
2019-02-10T16:00:44.479Z,54.30
2019-02-10T16:03:12.697Z,55.90
2019-02-10T16:05:40.913Z,56.90
2019-02-10T16:08:08.610Z,56.20
2019-02-10T16:10:38.799Z,56.20
2019-02-10T16:13:07.313Z,58.30
2019-02-10T16:15:35.951Z,57.90
2019-02-10T16:18:03.601Z,58.80
2019-02-10T16:20:31.499Z,57.80
2019-02-10T16:22:59.504Z,58.10
2019-02-10T16:25:27.508Z,58.40
2019-02-10T16:27:55.882Z,58.80
2019-02-10T16:30:24.708Z,58.70
2019-02-10T16:32:52.637Z,58.50
2019-02-10T16:35:21.057Z,59.20
2019-02-10T16:37:48.738Z,59.10
2019-02-10T16:40:16.814Z,59.70
2019-02-10T16:42:44.604Z,60.10
2019-02-10T16:45:12.589Z,58.70
2019-02-10T16:47:40.176Z,58.60
2019-02-10T16:50:09.114Z,58.80
2019-02-10T16:52:36.964Z,59.00
2019-02-10T16:55:05.906Z,58.90
2019-02-10T16:57:33.881Z,58.80
2019-02-10T17:00:01.933Z,58.90
2019-02-10T17:02:30.333Z,59.20
2019-02-10T17:04:59.238Z,59.20
2019-02-10T17:07:27.127Z,60.30
2019-02-10T17:09:54.961Z,59.80
2019-02-10T17:12:22.550Z,59.80
2019-02-10T17:14:50.623Z,59.80
2019-02-10T17:17:18.367Z,60.30
2019-02-10T17:19:47.375Z,60.50
2019-02-10T17:22:15.512Z,60.90
2019-02-10T17:24:43.258Z,60.90
2019-02-10T17:27:11.109Z,61.70
2019-02-10T17:29:39.154Z,61.80
2019-02-10T17:32:06.995Z,62.40
2019-02-10T17:34:34.985Z,62.40
2019-02-10T17:37:03.262Z,63.30
2019-02-10T17:39:31.071Z,63.30
2019-02-10T17:41:58.669Z,63.90
2019-02-10T17:44:26.409Z,64.40
2019-02-10T17:46:54.116Z,64.50
2019-02-10T17:49:21.977Z,64.80
2019-02-10T17:51:49.951Z,65.20
2019-02-10T17:54:18.662Z,65.80
2019-02-10T17:56:46.371Z,66.00
2019-02-10T17:59:15.557Z,65.90
2019-02-10T18:01:43.646Z,67.00
2019-02-10T18:04:11.254Z,67.60
2019-02-10T18:06:38.894Z,67.50
2019-02-10T18:09:07.140Z,69.50
2019-02-10T18:11:36.020Z,69.70
2019-02-10T18:14:17.995Z,69.40
2019-02-10T18:17:11.878Z,69.60
2019-02-10T18:19:52.452Z,69.50
2019-02-10T18:22:49.137Z,69.60
2019-02-10T18:25:25.692Z,69.80
2019-02-10T18:28:14.569Z,71.10
2019-02-10T18:30:49.957Z,70.60
2019-02-10T18:33:25.250Z,71.00
2019-02-10T18:36:01.014Z,71.20
2019-02-10T18:38:49.655Z,71.60
2019-02-10T18:41:48.066Z,71.60
2019-02-10T18:44:24.999Z,72.10
2019-02-10T18:47:27.983Z,72.40
2019-02-10T18:50:14.404Z,72.50
2019-02-10T18:53:06.471Z,73.00
2019-02-10T18:55:54.598Z,73.50
2019-02-10T18:58:34.250Z,74.40
2019-02-10T19:01:12.043Z,73.80
2019-02-10T19:04:06.414Z,74.30
2019-02-10T19:07:06.505Z,75.20
2019-02-10T19:10:12.588Z,75.80
2019-02-10T19:12:59.749Z,77.30
2019-02-10T19:15:48.154Z,77.50
2019-02-10T19:18:34.887Z,78.70
2019-02-10T19:21:23.124Z,78.40
2019-02-10T19:24:17.845Z,78.30
2019-02-10T19:27:11.914Z,79.20
2019-02-10T19:30:13.329Z,79.70
2019-02-10T19:32:54.319Z,79.60
2019-02-10T19:35:58.062Z,79.60
2019-02-10T19:38:31.642Z,79.40
2019-02-10T19:41:34.012Z,80.10
2019-02-10T19:44:18.723Z,79.90
2019-02-10T19:47:06.341Z,80.10
2019-02-10T19:49:46.217Z,80.20
2019-02-10T19:52:34.225Z,80.70
2019-02-10T19:55:23.126Z,80.50
2019-02-10T19:58:10.658Z,80.40
2019-02-10T20:01:02.095Z,80.30
2019-02-10T20:03:48.352Z,80.20
2019-02-10T20:06:22.339Z,80.10
2019-02-10T20:09:08.243Z,80.10
2019-02-10T20:12:04.120Z,80.30
2019-02-10T20:14:51.720Z,80.60
2019-02-10T20:17:39.106Z,81.50
2019-02-10T20:20:23.444Z,81.60
2019-02-10T20:23:16.947Z,81.70
2019-02-10T20:25:57.121Z,82.50
2019-02-10T20:28:47.561Z,82.40
2019-02-10T20:31:53.173Z,82.40
2019-02-10T20:34:43.426Z,82.60
2019-02-10T20:37:42.568Z,83.10
2019-02-10T20:40:31.611Z,83.40
2019-02-10T20:43:05.657Z,83.60
2019-02-10T20:45:45.779Z,83.70
2019-02-10T20:48:23.405Z,83.90
2019-02-10T20:51:28.891Z,83.80
2019-02-10T20:54:03.732Z,84.10
2019-02-10T20:56:42.790Z,84.00
2019-02-10T20:59:30.104Z,84.20
2019-02-10T21:02:17.295Z,84.40
2019-02-10T21:04:54.587Z,84.30
2019-02-10T21:07:27.920Z,84.00
2019-02-10T21:10:17.990Z,84.10
2019-02-10T21:13:01.734Z,84.50
2019-02-10T21:15:55.041Z,84.60
2019-02-10T21:18:29.020Z,84.80
2019-02-10T21:21:17.122Z,84.60
2019-02-10T21:23:54.464Z,84.90
2019-02-10T21:26:50.531Z,85.00
2019-02-10T21:29:43.659Z,84.70
2019-02-10T21:32:29.220Z,85.10
2019-02-10T21:35:18.545Z,85.40
2019-02-10T21:38:04.382Z,85.50
2019-02-10T21:40:52.031Z,85.60
2019-02-10T21:43:29.989Z,85.90
2019-02-10T21:46:07.996Z,86.20
2019-02-10T21:49:10.449Z,86.10
2019-02-10T21:51:38.076Z,86.10
2019-02-10T21:54:05.695Z,86.30
2019-02-10T21:56:33.687Z,86.10
2019-02-10T21:59:01.379Z,86.20
2019-02-10T22:01:28.823Z,86.30
2019-02-10T22:03:56.537Z,85.90
2019-02-10T22:06:24.202Z,86.30
2019-02-10T22:08:51.808Z,86.30
2019-02-10T22:11:19.521Z,86.70
2019-02-10T22:13:47.149Z,87.00
2019-02-10T22:16:14.995Z,86.80
2019-02-10T22:18:42.670Z,86.70
2019-02-10T22:21:10.239Z,86.90
2019-02-10T22:23:37.899Z,87.50
2019-02-10T22:26:06.080Z,87.30
2019-02-10T22:28:33.493Z,87.00
2019-02-10T22:31:01.486Z,87.10
2019-02-10T22:33:29.469Z,87.00
2019-02-10T22:35:57.032Z,87.00
2019-02-10T22:38:24.823Z,87.60
2019-02-10T22:40:52.375Z,87.50
2019-02-10T22:43:19.888Z,87.00
2019-02-10T22:45:48.599Z,86.50
2019-02-10T22:48:16.147Z,85.90
2019-02-10T22:50:43.886Z,85.40
2019-02-10T22:53:12.098Z,85.50
2019-02-10T22:55:39.731Z,84.30
2019-02-10T22:58:07.375Z,84.10
2019-02-10T23:00:46.853Z,83.60
2019-02-10T23:03:15.812Z,83.40
2019-02-10T23:05:43.602Z,83.10
2019-02-10T23:08:11.301Z,82.70
2019-02-10T23:10:39.153Z,82.60
2019-02-10T23:13:06.804Z,83.10
2019-02-10T23:15:34.315Z,83.00
2019-02-10T23:18:02.233Z,83.20
2019-02-10T23:20:29.961Z,84.30
2019-02-10T23:22:57.546Z,86.00
2019-02-10T23:25:25.334Z,86.00
2019-02-10T23:27:53.080Z,86.00
2019-02-10T23:30:20.714Z,86.30
2019-02-10T23:32:48.294Z,87.00
2019-02-10T23:35:15.871Z,87.10
2019-02-10T23:37:43.548Z,87.50
2019-02-10T23:40:11.477Z,88.50
2019-02-10T23:42:39.021Z,88.30
2019-02-10T23:45:06.713Z,88.40
2019-02-10T23:47:34.532Z,88.70
2019-02-10T23:52:39.423Z,88.90
2019-02-10T23:55:07.086Z,89.00
2019-02-10T23:57:34.685Z,89.10
